Time;durP1;ratioP1;P1;durP2;ratioP2;P2;SDS_P1;SDS_P2;PMS_P1;PMS_P2;Temp;Humidity;BMP_temperature;BMP_pressure;BME280_temperature;BME280_humidity;BME280_pressure;Samples;Min_cycle;Max_cycle;Signal;HPM_P1;HPM_P2
2022/10/30 00:01:58;;;;;;;2.67;2.15;;;19.80;57.80;;;;;;5135793;28;20162;-10
2022/10/30 00:04:24;;;;;;;2.47;1.80;;;19.80;57.90;;;;;;5117517;28;20465;-10
2022/10/30 00:06:50;;;;;;;2.38;2.17;;;19.90;57.90;;;;;;5135795;28;20129;-11
2022/10/30 00:09:15;;;;;;;2.53;2.13;;;19.80;57.90;;;;;;5136124;28;20406;-10
2022/10/30 00:11:41;;;;;;;2.35;2.15;;;19.80;57.80;;;;;;5117717;28;20096;-10
2022/10/30 00:14:07;;;;;;;2.60;2.28;;;19.80;57.80;;;;;;5136403;28;20047;-10
2022/10/30 00:16:33;;;;;;;2.38;2.17;;;19.80;57.90;;;;;;5136063;28;20050;-10
2022/10/30 00:18:58;;;;;;;2.08;1.80;;;19.80;57.90;;;;;;5135570;28;20395;-10
2022/10/30 00:21:24;;;;;;;2.22;2.03;;;19.80;57.90;;;;;;5135622;28;20103;-10
2022/10/30 00:23:52;;;;;;;2.20;2.00;;;19.80;57.90;;;;;;5134416;27;20078;-10
2022/10/30 00:26:19;;;;;;;2.28;2.08;;;19.80;57.90;;;;;;5135595;28;20422;-10
2022/10/30 00:28:50;;;;;;;3.17;2.20;;;19.80;57.90;;;;;;5135412;28;20051;-10
2022/10/30 00:31:15;;;;;;;1.90;1.58;;;19.80;57.90;;;;;;5136118;28;20486;-10
2022/10/30 00:33:41;;;;;;;2.10;1.70;;;19.80;57.90;;;;;;5135803;28;20043;-10
2022/10/30 00:36:06;;;;;;;2.15;1.95;;;19.80;57.90;;;;;;5117439;28;20501;-10
2022/10/30 00:38:33;;;;;;;2.03;1.90;;;19.80;57.90;;;;;;5135280;28;20061;-10
2022/10/30 00:40:59;;;;;;;2.38;2.17;;;19.80;57.90;;;;;;5135614;28;20051;-10
2022/10/30 00:43:37;;;;;;;2.40;2.20;;;19.80;57.90;;;;;;5117151;28;20555;-10
2022/10/30 00:46:18;;;;;;;2.28;2.08;;;19.80;57.90;;;;;;5135537;28;20125;-10
2022/10/30 00:48:50;;;;;;;2.50;2.30;;;19.80;57.90;;;;;;5135321;28;20043;-10
2022/10/30 00:51:17;;;;;;;2.30;2.10;;;19.80;57.90;;;;;;5116762;28;20108;-10
2022/10/30 00:53:43;;;;;;;2.38;2.17;;;19.80;58.40;;;;;;5135501;28;20141;-10
2022/10/30 00:56:11;;;;;;;2.30;2.10;;;19.80;57.90;;;;;;5135073;28;20043;-10
2022/10/30 00:58:45;;;;;;;2.13;1.92;;;19.80;57.90;;;;;;5134937;28;20058;-9
2022/10/30 01:01:17;;;;;;;2.67;2.30;;;19.80;57.90;;;;;;5134950;28;20069;-10
2022/10/30 01:03:43;;;;;;;2.75;1.92;;;19.80;57.90;;;;;;5135055;28;20403;-9
2022/10/30 01:06:12;;;;;;;2.60;2.40;;;19.80;57.90;;;;;;5135222;28;20059;-10
2022/10/30 01:08:39;;;;;;;3.05;2.42;;;19.80;57.90;;;;;;5134920;28;20054;-9
2022/10/30 01:11:06;;;;;;;3.55;2.38;;;19.80;57.90;;;;;;5116351;28;20051;-9
2022/10/30 01:13:34;;;;;;;3.15;2.22;;;19.80;57.90;;;;;;5134896;28;20047;-10
2022/10/30 01:16:41;;;;;;;2.55;2.35;;;19.80;57.90;;;;;;5134648;28;20097;-10
2022/10/30 01:19:16;;;;;;;2.00;1.70;;;19.80;57.90;;;;;;5107327;28;20058;-9
2022/10/30 01:22:01;;;;;;;2.75;2.30;;;19.80;57.90;;;;;;5134572;28;20046;-9
2022/10/30 01:25:13;;;;;;;2.50;2.30;;;19.80;57.90;;;;;;5134921;28;20059;-9
2022/10/30 01:28:00;;;;;;;2.40;1.98;;;19.80;57.90;;;;;;5032994;28;20057;-10
2022/10/30 01:30:41;;;;;;;2.60;2.20;;;19.80;57.90;;;;;;5115450;28;20051;-9
2022/10/30 01:33:44;;;;;;;2.42;2.00;;;19.80;57.90;;;;;;5116261;28;20086;-10
2022/10/30 01:36:36;;;;;;;3.28;2.50;;;19.80;57.90;;;;;;5134157;28;20506;-10
2022/10/30 01:39:09;;;;;;;3.33;2.65;;;19.80;57.90;;;;;;5114294;28;20142;-10
2022/10/30 01:41:35;;;;;;;2.70;2.20;;;19.80;57.90;;;;;;5115976;28;20054;-10
2022/10/30 01:44:30;;;;;;;3.30;2.15;;;19.80;57.90;;;;;;5115667;28;20403;-9
2022/10/30 01:47:37;;;;;;;3.28;2.42;;;19.80;57.90;;;;;;5125578;28;20490;-10
2022/10/30 01:50:37;;;;;;;2.97;2.40;;;19.80;57.90;;;;;;5134123;28;20062;-9
2022/10/30 01:53:37;;;;;;;2.78;2.40;;;19.80;58.00;;;;;;5134506;28;20047;-10
2022/10/30 01:56:14;;;;;;;2.20;2.00;;;19.80;58.00;;;;;;5113567;28;20508;-9
2022/10/30 01:58:56;;;;;;;3.13;2.38;;;19.80;58.00;;;;;;5115665;28;20051;-10
2022/10/30 02:01:23;;;;;;;2.30;2.10;;;19.80;58.00;;;;;;5116126;28;20531;-10
2022/10/30 02:03:49;;;;;;;2.33;2.10;;;19.80;57.90;;;;;;5134365;28;20403;-10
2022/10/30 02:06:16;;;;;;;3.08;2.45;;;19.80;57.90;;;;;;5134202;28;20443;-10
2022/10/30 02:08:41;;;;;;;3.28;2.40;;;19.80;57.90;;;;;;5115520;28;20057;-10
2022/10/30 02:11:09;;;;;;;2.60;2.22;;;19.80;58.00;;;;;;5116066;28;20101;-10
2022/10/30 02:13:39;;;;;;;2.85;2.35;;;19.80;58.00;;;;;;5115539;28;20050;-10
2022/10/30 02:16:05;;;;;;;3.58;2.50;;;19.80;58.00;;;;;;5115346;28;20050;-11
2022/10/30 02:18:31;;;;;;;3.22;2.42;;;19.80;58.00;;;;;;5115002;28;20086;-10
2022/10/30 02:20:57;;;;;;;2.40;2.20;;;19.80;57.90;;;;;;5113949;28;20054;-10
2022/10/30 02:23:24;;;;;;;3.10;2.40;;;19.80;57.90;;;;;;5115346;28;20054;-10
2022/10/30 02:25:50;;;;;;;4.10;2.10;;;19.80;57.90;;;;;;5115807;28;20531;-10
2022/10/30 02:28:16;;;;;;;2.45;2.20;;;19.80;57.90;;;;;;5115121;28;20063;-10
2022/10/30 02:30:47;;;;;;;2.67;2.33;;;19.80;58.00;;;;;;5133617;28;20070;-10
2022/10/30 02:33:13;;;;;;;3.25;2.38;;;19.80;57.90;;;;;;5133962;28;20039;-10
2022/10/30 02:35:39;;;;;;;3.97;2.60;;;19.80;58.00;;;;;;5113883;28;20054;-10
2022/10/30 02:38:06;;;;;;;3.25;2.60;;;19.80;57.90;;;;;;5115243;28;20088;-10
2022/10/30 02:40:32;;;;;;;3.15;2.55;;;19.80;57.90;;;;;;5114063;28;20094;-10
2022/10/30 02:42:58;;;;;;;2.47;2.28;;;19.80;57.90;;;;;;5133564;28;20047;-10
2022/10/30 02:45:24;;;;;;;2.97;2.45;;;19.80;57.90;;;;;;5115238;27;20099;-10
2022/10/30 02:47:49;;;;;;;2.80;2.42;;;19.80;57.90;;;;;;5117043;28;20047;-10
2022/10/30 02:50:15;;;;;;;3.30;2.75;;;19.80;57.90;;;;;;5136869;28;20069;-10
2022/10/30 02:52:41;;;;;;;3.05;2.67;;;19.80;57.90;;;;;;5135976;28;20139;-10
2022/10/30 02:55:07;;;;;;;2.72;2.10;;;19.80;58.00;;;;;;5119081;28;20149;-10
2022/10/30 02:57:33;;;;;;;2.40;2.20;;;19.80;57.90;;;;;;5117673;28;20135;-10
2022/10/30 02:59:59;;;;;;;2.78;2.40;;;19.80;57.90;;;;;;5137389;28;20380;-10
2022/10/30 03:02:24;;;;;;;3.10;2.25;;;19.80;57.90;;;;;;5118240;28;20484;-10
2022/10/30 03:04:50;;;;;;;3.85;2.92;;;19.80;57.90;;;;;;5118688;28;20160;-10
2022/10/30 03:07:16;;;;;;;3.60;2.53;;;19.80;58.00;;;;;;5136799;28;20483;-10
2022/10/30 03:09:41;;;;;;;5.55;2.80;;;19.80;58.00;;;;;;5137044;28;20074;-10
2022/10/30 03:12:07;;;;;;;2.92;2.22;;;19.70;58.00;;;;;;5136758;28;20035;-10
2022/10/30 03:14:33;;;;;;;2.55;2.35;;;19.80;58.00;;;;;;5118859;28;20061;-10
2022/10/30 03:16:58;;;;;;;2.97;2.53;;;19.70;57.90;;;;;;5118152;28;20487;-10
2022/10/30 03:19:24;;;;;;;2.65;2.38;;;19.80;57.90;;;;;;5136197;28;20059;-10
2022/10/30 03:21:52;;;;;;;2.60;2.40;;;19.80;58.00;;;;;;5118107;28;20079;-10
2022/10/30 03:24:18;;;;;;;3.00;2.58;;;19.70;58.00;;;;;;5118148;28;20498;-10
2022/10/30 03:26:43;;;;;;;3.15;2.78;;;19.80;58.00;;;;;;5118436;28;20078;-10
2022/10/30 03:29:09;;;;;;;4.00;2.67;;;19.80;58.00;;;;;;5117807;28;20051;-10
2022/10/30 03:31:35;;;;;;;2.58;2.22;;;19.70;58.00;;;;;;5118024;28;20054;-10
2022/10/30 03:34:17;;;;;;;2.90;2.60;;;19.70;57.90;;;;;;5136440;28;20055;-10
2022/10/30 03:36:43;;;;;;;3.78;2.72;;;19.70;58.00;;;;;;5136250;28;20055;-10
2022/10/30 03:39:09;;;;;;;2.75;2.35;;;19.80;58.00;;;;;;5118350;28;20403;-10
2022/10/30 03:41:36;;;;;;;2.92;2.50;;;19.70;57.90;;;;;;5117752;28;20142;-10
2022/10/30 03:44:01;;;;;;;2.33;2.13;;;19.70;58.00;;;;;;5136222;28;20121;-10
2022/10/30 03:46:27;;;;;;;2.50;2.30;;;19.70;58.00;;;;;;5136123;28;20051;-10
2022/10/30 03:49:01;;;;;;;2.55;2.22;;;19.70;58.00;;;;;;5117543;28;20138;-10
2022/10/30 03:51:26;;;;;;;3.47;2.40;;;19.80;58.00;;;;;;5117656;28;20134;-10
2022/10/30 03:53:52;;;;;;;2.90;2.60;;;19.70;57.90;;;;;;5136206;28;20058;-10
2022/10/30 03:56:18;;;;;;;3.95;2.50;;;19.70;57.90;;;;;;5117964;28;20455;-11
2022/10/30 03:58:48;;;;;;;2.90;2.40;;;19.70;58.00;;;;;;5117214;28;20555;-10
2022/10/30 04:01:18;;;;;;;3.80;2.53;;;19.70;58.00;;;;;;5118003;28;20051;-10
2022/10/30 04:03:48;;;;;;;2.70;2.17;;;19.70;58.00;;;;;;5117793;28;20095;-10
2022/10/30 04:06:14;;;;;;;2.70;2.40;;;19.70;58.00;;;;;;5117531;28;20134;-10
2022/10/30 04:08:39;;;;;;;3.50;2.80;;;19.70;58.00;;;;;;5115726;28;20044;-10
2022/10/30 04:11:05;;;;;;;3.45;2.90;;;19.70;58.00;;;;;;5117314;28;20057;-10
2022/10/30 04:13:31;;;;;;;2.92;2.60;;;19.70;58.00;;;;;;5117287;28;20427;-10
2022/10/30 04:15:56;;;;;;;2.80;2.30;;;19.70;58.00;;;;;;5136122;28;20398;-10
2022/10/30 04:18:24;;;;;;;3.67;2.60;;;19.70;58.00;;;;;;5115372;28;20055;-10
2022/10/30 04:20:50;;;;;;;2.90;2.55;;;19.70;58.00;;;;;;5116868;28;20050;-10
2022/10/30 04:23:19;;;;;;;3.35;2.92;;;19.70;58.00;;;;;;5117042;28;20059;-10
2022/10/30 04:25:48;;;;;;;3.33;2.63;;;19.70;58.00;;;;;;5117000;28;20486;-10
2022/10/30 04:28:14;;;;;;;2.35;2.05;;;19.70;58.00;;;;;;5117087;28;20162;-10
2022/10/30 04:30:41;;;;;;;2.92;2.42;;;19.70;58.00;;;;;;5117270;28;20047;-10
2022/10/30 04:33:10;;;;;;;3.35;2.85;;;19.70;58.00;;;;;;5135692;28;20058;-10
2022/10/30 04:35:37;;;;;;;3.70;2.75;;;19.70;58.00;;;;;;5116982;28;20137;-10
2022/10/30 04:38:07;;;;;;;3.92;2.70;;;19.70;58.00;;;;;;5116623;28;20062;-10
2022/10/30 04:40:36;;;;;;;3.72;2.45;;;19.70;57.90;;;;;;5116074;28;20133;-10
2022/10/30 04:43:05;;;;;;;3.88;2.80;;;19.70;58.00;;;;;;5116723;28;20055;-10
2022/10/30 04:45:32;;;;;;;3.95;2.80;;;19.70;58.00;;;;;;5115342;28;20407;-10
2022/10/30 04:48:11;;;;;;;3.00;2.72;;;19.70;57.90;;;;;;5115166;28;20047;-10
2022/10/30 04:50:37;;;;;;;3.30;2.63;;;19.70;58.00;;;;;;5135381;28;20483;-10
2022/10/30 04:53:06;;;;;;;4.18;2.55;;;19.70;58.00;;;;;;5117044;28;20387;-10
2022/10/30 04:55:32;;;;;;;3.90;2.78;;;19.70;58.00;;;;;;5114927;28;20064;-10
2022/10/30 04:58:01;;;;;;;4.07;2.90;;;19.70;58.00;;;;;;5117118;28;20398;-10
2022/10/30 05:00:28;;;;;;;3.17;2.55;;;19.70;58.00;;;;;;5134832;28;20076;-10
2022/10/30 05:02:59;;;;;;;2.80;2.53;;;19.70;58.00;;;;;;5116756;28;20051;-10
2022/10/30 05:05:26;;;;;;;3.72;2.92;;;19.70;58.00;;;;;;5116075;28;20143;-10
2022/10/30 05:07:51;;;;;;;3.45;2.42;;;19.70;58.00;;;;;;5114872;28;20543;-10
2022/10/30 05:10:17;;;;;;;3.55;3.15;;;19.70;58.00;;;;;;5115592;28;20138;-10
2022/10/30 05:12:44;;;;;;;3.15;2.85;;;19.70;58.00;;;;;;5116301;28;20103;-10
2022/10/30 05:15:11;;;;;;;3.88;2.85;;;19.70;58.00;;;;;;5116329;28;20091;-10
2022/10/30 05:17:37;;;;;;;3.00;2.67;;;19.70;58.00;;;;;;5116225;28;20043;-10
2022/10/30 05:20:04;;;;;;;4.18;2.60;;;19.70;58.00;;;;;;5116614;28;20390;-11
2022/10/30 05:22:30;;;;;;;3.13;2.60;;;19.70;58.00;;;;;;5116156;28;20119;-10
2022/10/30 05:24:56;;;;;;;3.10;2.60;;;19.70;58.00;;;;;;5116178;28;20086;-10
2022/10/30 05:27:22;;;;;;;3.75;2.97;;;19.70;58.00;;;;;;5116061;28;20114;-11
2022/10/30 05:29:47;;;;;;;3.08;2.50;;;19.70;58.00;;;;;;5134575;28;20426;-10
2022/10/30 05:32:14;;;;;;;3.72;2.78;;;19.70;58.00;;;;;;5116018;28;20051;-10
2022/10/30 05:34:44;;;;;;;3.70;2.80;;;19.70;58.00;;;;;;5116032;28;20051;-10
2022/10/30 05:37:10;;;;;;;4.30;2.83;;;19.70;58.00;;;;;;5114932;28;20059;-10
2022/10/30 05:39:36;;;;;;;3.55;2.67;;;19.70;58.00;;;;;;5116397;28;20046;-10
2022/10/30 05:42:03;;;;;;;2.97;2.55;;;19.70;58.00;;;;;;5115813;28;20088;-10
2022/10/30 05:44:39;;;;;;;4.18;3.10;;;19.70;58.00;;;;;;5116329;28;20398;-10
2022/10/30 05:47:05;;;;;;;3.28;2.50;;;19.70;58.00;;;;;;5134612;28;20051;-10
2022/10/30 05:49:33;;;;;;;3.22;2.92;;;19.70;58.00;;;;;;5116371;28;20047;-10
2022/10/30 05:52:00;;;;;;;2.85;2.58;;;19.70;58.00;;;;;;5115772;28;20045;-10
2022/10/30 05:54:26;;;;;;;3.60;2.90;;;19.70;58.00;;;;;;5115773;28;20051;-10
2022/10/30 05:57:13;;;;;;;5.18;3.03;;;19.70;58.00;;;;;;5115623;28;20184;-10
2022/10/30 05:59:39;;;;;;;3.15;2.65;;;19.70;58.00;;;;;;5115566;28;20055;-10
2022/10/30 06:02:04;;;;;;;3.97;2.83;;;19.70;58.00;;;;;;5115876;28;20054;-10
2022/10/30 06:04:30;;;;;;;2.90;2.53;;;19.70;58.00;;;;;;5115572;28;20051;-10
2022/10/30 06:06:58;;;;;;;3.67;2.88;;;19.70;58.00;;;;;;5115289;28;20047;-10
2022/10/30 06:09:23;;;;;;;3.63;2.72;;;19.70;58.00;;;;;;5115593;28;20047;-10
2022/10/30 06:12:07;;;;;;;3.72;3.15;;;19.70;58.00;;;;;;5116135;28;20081;-9
2022/10/30 06:14:46;;;;;;;3.85;3.00;;;19.70;58.00;;;;;;5115438;28;20051;-9
2022/10/30 06:17:12;;;;;;;3.60;2.75;;;19.70;58.00;;;;;;5115520;28;20051;-9
2022/10/30 06:19:56;;;;;;;3.58;2.95;;;19.70;58.00;;;;;;5134172;28;20103;-10
2022/10/30 06:22:39;;;;;;;3.10;2.80;;;19.70;58.00;;;;;;5132998;28;20062;-10
2022/10/30 06:25:13;;;;;;;4.22;3.22;;;19.70;58.00;;;;;;5115985;28;20388;-9
2022/10/30 06:28:12;;;;;;;4.15;3.25;;;19.70;58.00;;;;;;5133561;28;20134;-10
2022/10/30 06:30:39;;;;;;;3.40;2.78;;;19.70;58.00;;;;;;5115545;28;20517;-10
2022/10/30 06:33:05;;;;;;;3.08;2.60;;;19.70;58.00;;;;;;5115220;28;20047;-10
2022/10/30 06:35:33;;;;;;;3.75;2.80;;;19.70;57.90;;;;;;5114380;28;20087;-9
2022/10/30 06:37:59;;;;;;;4.35;3.25;;;19.70;57.90;;;;;;5113072;28;20055;-10
2022/10/30 06:40:28;;;;;;;3.95;2.90;;;19.70;57.90;;;;;;5114784;28;20534;-9
2022/10/30 06:42:55;;;;;;;3.47;2.80;;;19.70;57.80;;;;;;5133473;28;20634;-10
2022/10/30 06:45:32;;;;;;;4.28;3.20;;;19.70;57.80;;;;;;5114017;28;20120;-10
2022/10/30 06:47:59;;;;;;;4.25;3.13;;;19.80;57.80;;;;;;5114824;28;20078;-13
2022/10/30 06:50:25;;;;;;;3.10;2.80;;;19.80;57.70;;;;;;5114795;28;20396;-10
2022/10/30 06:52:51;;;;;;;3.45;2.70;;;19.80;57.70;;;;;;5115268;28;20064;-10
2022/10/30 06:55:17;;;;;;;5.55;3.05;;;19.90;57.70;;;;;;5133265;28;20051;-10
2022/10/30 06:58:05;;;;;;;3.88;2.97;;;19.90;57.60;;;;;;5117564;28;20047;-10
2022/10/30 07:00:52;;;;;;;4.13;3.03;;;19.90;57.60;;;;;;5115372;28;20049;-11
2022/10/30 07:03:33;;;;;;;3.17;2.80;;;19.90;57.50;;;;;;5115154;28;20043;-10
2022/10/30 07:05:58;;;;;;;3.20;2.80;;;19.90;57.50;;;;;;5115310;28;20368;-10
2022/10/30 07:08:24;;;;;;;4.40;2.92;;;19.90;57.40;;;;;;5113530;28;20059;-10
2022/10/30 07:10:50;;;;;;;3.60;3.03;;;19.90;57.30;;;;;;5133126;28;20082;-10
2022/10/30 07:13:23;;;;;;;4.25;2.72;;;20.00;57.40;;;;;;5115323;28;20058;-10
2022/10/30 07:16:02;;;;;;;3.42;2.83;;;20.00;57.30;;;;;;5114862;28;20100;-10
2022/10/30 07:18:34;;;;;;;4.30;3.03;;;20.00;57.30;;;;;;5115051;28;20058;-10
2022/10/30 07:21:00;;;;;;;3.58;2.75;;;20.00;57.80;;;;;;5114593;28;20043;-10
2022/10/30 07:23:27;;;;;;;3.20;2.83;;;20.00;57.30;;;;;;5114969;28;20407;-10
2022/10/30 07:26:00;;;;;;;3.13;2.80;;;20.00;57.30;;;;;;5114483;28;20495;-10
2022/10/30 07:28:35;;;;;;;4.25;3.00;;;20.00;57.30;;;;;;5115143;28;20047;-10
2022/10/30 07:31:20;;;;;;;3.80;3.00;;;20.00;57.30;;;;;;5133374;28;20134;-10
2022/10/30 07:34:06;;;;;;;3.55;2.80;;;20.00;57.20;;;;;;5135546;28;20150;-10
2022/10/30 07:36:39;;;;;;;4.25;2.92;;;20.00;57.20;;;;;;5118595;28;20103;-10
2022/10/30 07:39:26;;;;;;;4.18;2.78;;;20.00;57.30;;;;;;5116368;28;20047;-10
2022/10/30 07:42:13;;;;;;;3.53;3.22;;;20.00;57.30;;;;;;5118088;28;20078;-10
2022/10/30 07:44:45;;;;;;;3.35;3.05;;;20.00;57.30;;;;;;5118313;28;20115;-10
2022/10/30 07:47:13;;;;;;;3.60;3.13;;;20.00;57.30;;;;;;5136246;28;20058;-10
2022/10/30 07:50:00;;;;;;;3.33;2.78;;;20.00;57.30;;;;;;5116766;28;20051;-10
2022/10/30 07:52:31;;;;;;;4.22;3.22;;;20.00;57.20;;;;;;5117686;28;20491;-10
2022/10/30 07:54:57;;;;;;;3.92;3.10;;;20.00;57.20;;;;;;5117593;28;20051;-10
2022/10/30 07:57:42;;;;;;;5.70;3.28;;;20.00;57.20;;;;;;5136389;28;20070;-10
2022/10/30 08:00:27;;;;;;;4.68;3.03;;;20.10;57.20;;;;;;5135943;28;20402;-10
2022/10/30 08:03:09;;;;;;;3.15;2.65;;;20.10;57.20;;;;;;5117828;28;20047;-10
2022/10/30 08:05:53;;;;;;;4.47;2.92;;;20.10;57.20;;;;;;5117573;28;20058;-10
2022/10/30 08:08:25;;;;;;;3.80;3.20;;;20.10;57.20;;;;;;5115383;28;20567;-10
2022/10/30 08:11:03;;;;;;;3.22;2.70;;;20.00;57.10;;;;;;5117106;28;20048;-10
2022/10/30 08:13:29;;;;;;;4.40;3.33;;;20.00;57.20;;;;;;5116406;28;20134;-10
2022/10/30 08:15:54;;;;;;;4.07;3.08;;;20.00;57.10;;;;;;5135768;28;20074;-10
2022/10/30 08:18:20;;;;;;;3.47;3.08;;;20.00;57.10;;;;;;5117778;28;20047;-10
2022/10/30 08:20:49;;;;;;;3.00;2.70;;;20.00;57.10;;;;;;5117232;28;20387;-10
2022/10/30 08:23:16;;;;;;;4.28;3.28;;;20.00;57.10;;;;;;5116982;28;20501;-10
2022/10/30 08:25:42;;;;;;;4.47;3.05;;;20.10;57.20;;;;;;5117210;28;20038;-10
2022/10/30 08:28:10;;;;;;;3.58;3.17;;;20.00;57.10;;;;;;5135505;28;20066;-10
2022/10/30 08:30:37;;;;;;;4.55;3.15;;;20.00;57.20;;;;;;5116518;28;20112;-10
2022/10/30 08:33:08;;;;;;;3.88;2.90;;;20.10;57.30;;;;;;5115840;28;20048;-10
2022/10/30 08:35:56;;;;;;;3.00;2.70;;;20.00;57.20;;;;;;5134361;28;20509;-10
2022/10/30 08:38:22;;;;;;;4.35;3.30;;;20.00;57.30;;;;;;5116748;28;20055;-10
2022/10/30 08:41:01;;;;;;;4.55;3.05;;;20.00;57.30;;;;;;5117695;28;20055;-10
2022/10/30 08:43:27;;;;;;;3.55;3.25;;;20.00;57.30;;;;;;5116182;27;20051;-10
2022/10/30 08:45:57;;;;;;;3.50;3.17;;;20.00;57.40;;;;;;5116239;28;20051;-10
2022/10/30 08:48:23;;;;;;;3.40;2.70;;;20.00;57.30;;;;;;5115847;28;20097;-10
2022/10/30 08:50:49;;;;;;;5.80;3.17;;;20.00;57.40;;;;;;5115349;28;20407;-10
2022/10/30 08:53:22;;;;;;;4.03;3.10;;;20.00;57.40;;;;;;5100596;28;20051;-10
2022/10/30 08:55:50;;;;;;;3.70;2.80;;;20.00;57.40;;;;;;5116688;28;20044;-10
2022/10/30 08:58:23;;;;;;;4.40;3.03;;;20.00;57.30;;;;;;5115767;28;20052;-10
2022/10/30 09:00:49;;;;;;;4.13;3.10;;;20.00;57.30;;;;;;5117243;28;20042;-10
2022/10/30 09:03:14;;;;;;;3.47;3.00;;;20.00;57.40;;;;;;5134888;28;20129;-10
2022/10/30 09:05:58;;;;;;;4.15;3.20;;;20.00;57.30;;;;;;5134487;28;20547;-11
2022/10/30 09:08:44;;;;;;;5.07;3.30;;;20.00;57.30;;;;;;5134885;28;20104;-10
2022/10/30 09:11:16;;;;;;;3.60;3.20;;;20.00;57.30;;;;;;5116728;28;20051;-10
2022/10/30 09:13:42;;;;;;;4.25;2.88;;;20.10;57.30;;;;;;5134794;28;20039;-10
2022/10/30 09:16:07;;;;;;;3.88;2.92;;;20.00;57.20;;;;;;5114916;28;20043;-10
2022/10/30 09:18:35;;;;;;;3.10;2.80;;;20.00;57.20;;;;;;5114618;28;20096;-10
2022/10/30 09:21:01;;;;;;;4.13;3.25;;;20.00;57.20;;;;;;5116735;28;20051;-10
2022/10/30 09:23:26;;;;;;;3.72;2.92;;;20.00;57.20;;;;;;5116478;28;20051;-10
2022/10/30 09:26:05;;;;;;;2.67;2.45;;;20.00;57.20;;;;;;5116248;28;20084;-10
2022/10/30 09:28:54;;;;;;;3.28;2.97;;;20.10;57.30;;;;;;5116673;28;20050;-10
2022/10/30 09:31:38;;;;;;;4.05;3.53;;;20.10;57.30;;;;;;5134754;28;20410;-10
2022/10/30 09:34:07;;;;;;;3.20;2.90;;;20.00;57.20;;;;;;5116069;28;20405;-10
2022/10/30 09:36:42;;;;;;;3.13;2.83;;;20.10;57.20;;;;;;5116027;28;20400;-10
2022/10/30 09:39:09;;;;;;;4.22;2.90;;;20.10;57.20;;;;;;5115780;28;20055;-10
2022/10/30 09:41:49;;;;;;;4.22;3.15;;;20.00;57.20;;;;;;5116004;28;20043;-10
2022/10/30 09:44:22;;;;;;;3.75;3.15;;;20.00;57.20;;;;;;5116298;28;20398;-10
2022/10/30 09:47:00;;;;;;;4.75;3.40;;;20.00;57.20;;;;;;5116260;28;20051;-10
2022/10/30 09:49:33;;;;;;;4.07;3.10;;;20.00;57.20;;;;;;5114643;28;20052;-10
2022/10/30 09:52:05;;;;;;;3.40;2.83;;;20.10;57.20;;;;;;5134186;28;20054;-10
2022/10/30 09:54:52;;;;;;;3.47;2.95;;;20.00;57.20;;;;;;5115521;28;20058;-10
2022/10/30 09:57:33;;;;;;;3.92;3.15;;;20.10;57.20;;;;;;5133920;28;20562;-11
2022/10/30 10:00:18;;;;;;;3.17;2.20;;;20.00;57.20;;;;;;5115872;28;20147;-10
2022/10/30 10:03:01;;;;;;;4.13;3.20;;;20.00;57.10;;;;;;5134096;28;20506;-12
2022/10/30 10:05:43;;;;;;;3.53;2.83;;;20.10;57.10;;;;;;5115306;28;20499;-12
2022/10/30 10:08:38;;;;;;;2.90;2.70;;;20.10;57.10;;;;;;5134142;28;20058;-12
2022/10/30 10:11:28;;;;;;;3.65;3.03;;;20.10;57.10;;;;;;5134067;28;20437;-11
2022/10/30 10:14:11;;;;;;;5.13;2.97;;;20.10;57.10;;;;;;5134288;28;20104;-11
2022/10/30 10:16:42;;;;;;;4.00;3.25;;;20.10;57.10;;;;;;5134030;28;20475;-12
2022/10/30 10:19:14;;;;;;;3.40;2.92;;;20.10;57.10;;;;;;5133975;28;20047;-12
2022/10/30 10:21:50;;;;;;;4.28;3.13;;;20.10;57.10;;;;;;5134400;28;20061;-11
2022/10/30 10:24:23;;;;;;;4.78;3.20;;;20.10;57.10;;;;;;5134081;28;20508;-11
2022/10/30 10:26:59;;;;;;;3.72;2.95;;;20.10;57.10;;;;;;5134005;28;20108;-12
2022/10/30 10:29:43;;;;;;;4.03;2.92;;;20.10;57.10;;;;;;5133584;28;20077;-12
2022/10/30 10:32:30;;;;;;;3.38;2.85;;;20.10;57.00;;;;;;5134033;28;20530;-12
2022/10/30 10:35:34;;;;;;;3.20;2.90;;;20.10;57.00;;;;;;5133951;28;20063;-12
2022/10/30 10:38:23;;;;;;;3.58;2.75;;;20.10;57.00;;;;;;5133414;28;20051;-12
2022/10/30 10:41:32;;;;;;;3.70;3.05;;;20.10;57.00;;;;;;5133898;28;20074;-12
2022/10/30 10:44:02;;;;;;;3.92;3.10;;;20.10;57.00;;;;;;5106153;28;20482;-11
2022/10/30 10:47:00;;;;;;;3.90;2.97;;;20.10;57.00;;;;;;5134101;28;20062;-12
2022/10/30 10:49:37;;;;;;;4.90;3.03;;;20.10;57.00;;;;;;5133501;28;20387;-12
2022/10/30 10:52:29;;;;;;;3.75;3.20;;;20.10;57.00;;;;;;5133846;28;20055;-12
2022/10/30 10:54:58;;;;;;;5.25;3.25;;;20.10;56.90;;;;;;5101611;28;20138;-12
2022/10/30 10:57:39;;;;;;;5.40;3.25;;;20.10;56.90;;;;;;5133142;28;20058;-10
2022/10/30 11:00:12;;;;;;;4.72;3.30;;;20.10;56.90;;;;;;5133451;28;20051;-10
2022/10/30 11:02:57;;;;;;;4.15;3.03;;;20.10;56.90;;;;;;5133134;28;20410;-10
2022/10/30 11:05:32;;;;;;;3.30;2.75;;;20.10;56.90;;;;;;5132976;28;20167;-10
2022/10/30 11:08:09;;;;;;;3.45;3.03;;;20.10;56.90;;;;;;5134792;27;20059;-10
2022/10/30 11:10:35;;;;;;;4.07;3.08;;;20.10;56.90;;;;;;5137259;28;20055;-10
2022/10/30 11:13:01;;;;;;;4.00;3.13;;;20.10;56.90;;;;;;5136740;28;20519;-10
2022/10/30 11:15:40;;;;;;;4.68;3.50;;;20.10;56.90;;;;;;5136696;28;20390;-10
2022/10/30 11:18:08;;;;;;;3.47;3.13;;;20.20;56.90;;;;;;5136970;28;20487;-10
2022/10/30 11:20:58;;;;;;;3.00;2.58;;;20.20;56.90;;;;;;5136646;28;20517;-10
2022/10/30 11:23:29;;;;;;;3.92;3.10;;;20.20;56.90;;;;;;5136688;28;20402;-10
2022/10/30 11:25:54;;;;;;;3.08;2.75;;;20.20;56.90;;;;;;5136637;28;20051;-10
2022/10/30 11:28:51;;;;;;;3.10;2.80;;;20.20;56.90;;;;;;5136435;28;20398;-10
2022/10/30 11:31:26;;;;;;;3.35;2.92;;;20.20;56.90;;;;;;5136533;28;20047;-10
2022/10/30 11:33:52;;;;;;;4.60;3.20;;;20.20;56.90;;;;;;5136524;28;20486;-10
2022/10/30 11:36:24;;;;;;;3.35;2.53;;;20.20;56.90;;;;;;5136315;28;20043;-10
2022/10/30 11:38:51;;;;;;;5.78;3.22;;;20.20;57.40;;;;;;5136587;28;20058;-10
2022/10/30 11:41:18;;;;;;;3.65;2.60;;;20.20;56.90;;;;;;5117736;28;20055;-10
2022/10/30 11:43:45;;;;;;;2.85;2.58;;;20.10;56.80;;;;;;5136404;28;20402;-10
2022/10/30 11:46:19;;;;;;;4.18;3.03;;;20.20;56.90;;;;;;5136329;28;20045;-10
2022/10/30 11:48:45;;;;;;;5.30;3.17;;;20.20;56.90;;;;;;5136246;28;20055;-10
2022/10/30 11:51:12;;;;;;;3.55;3.25;;;20.20;56.90;;;;;;5136808;28;20402;-10
2022/10/30 11:53:49;;;;;;;4.57;2.70;;;20.20;56.90;;;;;;5136476;28;20055;-10
2022/10/30 11:56:22;;;;;;;3.85;2.97;;;20.20;56.90;;;;;;5136465;28;20066;-10
2022/10/30 11:58:52;;;;;;;3.22;2.83;;;20.10;56.90;;;;;;5136318;28;20512;-10
2022/10/30 12:01:37;;;;;;;4.13;3.20;;;20.10;56.80;;;;;;5136318;28;20043;-10
2022/10/30 12:04:13;;;;;;;3.95;3.13;;;20.10;56.90;;;;;;5136058;28;20059;-10
2022/10/30 12:06:38;;;;;;;4.50;2.70;;;20.10;56.90;;;;;;5135799;28;20523;-10
2022/10/30 12:09:19;;;;;;;2.95;2.63;;;20.10;56.90;;;;;;5136501;28;20134;-10
2022/10/30 12:11:45;;;;;;;;;;;20.20;56.90;;;;;;5136357;28;20043;-10
2022/10/30 12:14:20;;;;;;;3.90;3.00;;;20.20;56.90;;;;;;5135748;28;19922;-10
2022/10/30 12:16:49;;;;;;;4.43;3.30;;;20.10;56.80;;;;;;5135844;28;20147;-10
2022/10/30 12:19:16;;;;;;;3.25;2.88;;;20.10;56.80;;;;;;5135484;27;20077;-10
2022/10/30 12:21:52;;;;;;;3.58;2.90;;;20.20;56.90;;;;;;5135855;28;20043;-10
2022/10/30 12:24:30;;;;;;;2.83;2.63;;;20.10;56.90;;;;;;5136382;28;20092;-10
2022/10/30 12:27:00;;;;;;;3.55;2.78;;;20.10;56.90;;;;;;5135651;28;20107;-10
2022/10/30 12:29:59;;;;;;;3.15;2.85;;;20.10;56.90;;;;;;5135440;28;20086;-10
2022/10/30 12:32:32;;;;;;;2.92;2.58;;;20.10;56.90;;;;;;5135882;28;20047;-10
2022/10/30 12:35:13;;;;;;;3.13;2.60;;;20.20;57.00;;;;;;5135768;28;20058;-10
2022/10/30 12:37:41;;;;;;;3.40;2.85;;;20.10;57.50;;;;;;5135503;28;20040;-10
2022/10/30 12:40:24;;;;;;;2.97;2.67;;;20.10;56.90;;;;;;5135422;28;20511;-10
2022/10/30 12:43:23;;;;;;;4.18;3.33;;;20.10;56.90;;;;;;5135391;28;20039;-10
2022/10/30 12:45:51;;;;;;;3.42;2.75;;;20.10;56.90;;;;;;5135647;28;20047;-10
2022/10/30 12:48:27;;;;;;;3.88;2.65;;;20.10;56.90;;;;;;5135168;28;20138;-10
2022/10/30 12:51:11;;;;;;;3.90;2.97;;;20.10;57.00;;;;;;5135596;28;20138;-10
2022/10/30 12:53:50;;;;;;;3.38;2.90;;;20.10;57.00;;;;;;5135209;28;20559;-10
2022/10/30 12:56:28;;;;;;;4.78;3.35;;;20.10;57.00;;;;;;5135298;28;20491;-11
2022/10/30 12:59:12;;;;;;;3.05;2.70;;;20.10;57.00;;;;;;5135326;28;20066;-10
2022/10/30 13:01:47;;;;;;;3.13;2.60;;;20.10;57.00;;;;;;5135339;28;20142;-10
2022/10/30 13:04:25;;;;;;;4.60;2.83;;;20.10;57.00;;;;;;5135033;28;20055;-10
2022/10/30 13:07:14;;;;;;;3.90;3.00;;;20.10;57.00;;;;;;5134870;28;20055;-10
2022/10/30 13:09:48;;;;;;;3.63;3.08;;;20.10;57.00;;;;;;5135702;28;20047;-10
2022/10/30 13:12:22;;;;;;;3.55;3.08;;;20.10;57.00;;;;;;5135397;28;20043;-10
2022/10/30 13:14:54;;;;;;;4.03;3.03;;;20.10;57.00;;;;;;5135245;28;20047;-10
2022/10/30 13:17:20;;;;;;;3.83;3.10;;;20.10;57.00;;;;;;5134977;28;20050;-10